Hiko, Nevada
Current Conditions -  °F | °C
As of 5:58 PM on Friday 28 Nov 2014 (Local Time) from KINS Reporting Station
Clear Clear  
Wind Chill: 51°   Ceiling: Unl
Heat Index: 51°   Visibility: 10mi
Dew Point: 15°   Wind: 2mph
Humidity: 24%   Direction: NA
Pressure: 29.93"   Gusts: NA
Location:  37.6°N, 115.23°W
Report Text: KINS 290158Z AUTO VRB02KT 10SM CLR 11/M09 A2993 RMK AO2 SLP132 T01071093 $
Loading
Personal Weather Stations






























Interactive Weather Map New forecast layout! Learn more

10-Day Weather Forecast

Advertisements
Track Severe Weather on mobile